DAL1845 KABQ-KLBB
Flight info
| Callsign | DAL1845 |
|---|---|
| Flight time | 0h 47m |
| Altitude | 35000 |
| Route | LARGO3 ABQ TXO LBB |
| Aircraft | A319/M-SDE3FGHIRWY/LB1 |
Departure
| Time | 2026-04-23 01:35 |
|---|---|
| Airport | Albuquerque International Sunport (KABQ) |
Arrival
| Time | 2026-04-23 02:22 |
|---|---|
| Airport | Lubbock Preston Smith International Airport (KLBB) |
| Time | Latitude | Longitude | Altitude | Speed | Heading |
|---|---|---|---|---|---|
| 2026-04-23 00:58 | 35.04698 | -106.61838 | 5312 ft | 0 kts | 37° |
| 2026-04-23 01:22 | 35.04681 | -106.61854 | 5315 ft | 4 kts | 51° |
| 2026-04-23 01:22 | 35.04668 | -106.61882 | 5311 ft | 4 kts | 79° |
| 2026-04-23 01:22 | 35.04669 | -106.61911 | 5311 ft | 4 kts | 128° |
| 2026-04-23 01:23 | 35.04675 | -106.61919 | 5321 ft | 0 kts | 148° |
| 2026-04-23 01:25 | 35.04669 | -106.61914 | 5314 ft | 3 kts | 147° |
| 2026-04-23 01:25 | 35.04635 | -106.61862 | 5321 ft | 10 kts | 118° |
| 2026-04-23 01:26 | 35.04577 | -106.61821 | 5319 ft | 10 kts | 152° |
| 2026-04-23 01:26 | 35.04555 | -106.61745 | 5320 ft | 11 kts | 91° |
| 2026-04-23 01:26 | 35.04556 | -106.61646 | 5321 ft | 13 kts | 89° |
| 2026-04-23 01:26 | 35.04557 | -106.61526 | 5321 ft | 15 kts | 90° |
| 2026-04-23 01:27 | 35.04557 | -106.61402 | 5321 ft | 14 kts | 89° |
| 2026-04-23 01:27 | 35.04582 | -106.61289 | 5321 ft | 14 kts | 84° |
| 2026-04-23 01:27 | 35.04584 | -106.61169 | 5321 ft | 15 kts | 90° |
| 2026-04-23 01:27 | 35.04584 | -106.61045 | 5318 ft | 15 kts | 91° |
| 2026-04-23 01:28 | 35.04582 | -106.60922 | 5318 ft | 14 kts | 91° |
| 2026-04-23 01:28 | 35.04581 | -106.60801 | 5315 ft | 14 kts | 91° |
| 2026-04-23 01:28 | 35.04579 | -106.60663 | 5319 ft | 18 kts | 91° |
| 2026-04-23 01:28 | 35.04578 | -106.60505 | 5321 ft | 19 kts | 90° |
| 2026-04-23 01:29 | 35.04577 | -106.60349 | 5321 ft | 18 kts | 90° |
| 2026-04-23 01:29 | 35.04577 | -106.60198 | 5321 ft | 18 kts | 90° |
| 2026-04-23 01:29 | 35.04576 | -106.60048 | 5321 ft | 18 kts | 90° |
| 2026-04-23 01:29 | 35.04576 | -106.59901 | 5321 ft | 17 kts | 88° |
| 2026-04-23 01:30 | 35.04586 | -106.59758 | 5321 ft | 17 kts | 88° |
| 2026-04-23 01:30 | 35.04587 | -106.59618 | 5321 ft | 16 kts | 90° |
| 2026-04-23 01:30 | 35.04585 | -106.59479 | 5317 ft | 16 kts | 92° |
| 2026-04-23 01:30 | 35.04583 | -106.59343 | 5321 ft | 16 kts | 90° |
| 2026-04-23 01:31 | 35.04582 | -106.59172 | 5321 ft | 24 kts | 90° |
| 2026-04-23 01:31 | 35.04581 | -106.58969 | 5321 ft | 24 kts | 90° |
| 2026-04-23 01:31 | 35.04581 | -106.58771 | 5317 ft | 23 kts | 90° |
| 2026-04-23 01:31 | 35.04580 | -106.58579 | 5321 ft | 23 kts | 90° |
| 2026-04-23 01:32 | 35.04579 | -106.58390 | 5318 ft | 22 kts | 90° |
| 2026-04-23 01:32 | 35.04578 | -106.58207 | 5321 ft | 21 kts | 90° |
| 2026-04-23 01:32 | 35.04578 | -106.58030 | 5321 ft | 21 kts | 90° |
| 2026-04-23 01:32 | 35.04576 | -106.57856 | 5321 ft | 20 kts | 91° |
| 2026-04-23 01:33 | 35.04573 | -106.57688 | 5321 ft | 20 kts | 91° |
| 2026-04-23 01:33 | 35.04520 | -106.57578 | 5316 ft | 11 kts | 161° |
| 2026-04-23 01:33 | 35.04505 | -106.57575 | 5317 ft | 1 kts | 172° |
| 2026-04-23 01:33 | 35.04486 | -106.57573 | 5315 ft | 7 kts | 177° |
| 2026-04-23 01:34 | 35.04414 | -106.57602 | 5317 ft | 12 kts | 239° |
| 2026-04-23 01:34 | 35.04406 | -106.57715 | 5319 ft | 21 kts | 271° |
| 2026-04-23 01:34 | 35.04411 | -106.58177 | 5319 ft | 85 kts | 270° |
| 2026-04-23 01:34 | 35.04416 | -106.59111 | 5321 ft | 133 kts | 271° |
| 2026-04-23 01:35 | 35.04418 | -106.60390 | 5469 ft | 161 kts | 272° |
| 2026-04-23 01:35 | 35.04421 | -106.61300 | 5915 ft | 163 kts | 272° |
| 2026-04-23 01:35 | 35.04428 | -106.62717 | 6403 ft | 173 kts | 271° |
| 2026-04-23 01:35 | 35.04430 | -106.64278 | 6621 ft | 195 kts | 270° |
| 2026-04-23 01:36 | 35.04427 | -106.66632 | 6930 ft | 222 kts | 270° |
| 2026-04-23 01:36 | 35.04424 | -106.67944 | 7121 ft | 235 kts | 270° |
| 2026-04-23 01:36 | 35.04418 | -106.69873 | 8197 ft | 218 kts | 270° |
| 2026-04-23 01:36 | 35.04409 | -106.72297 | 9411 ft | 215 kts | 270° |
| 2026-04-23 01:37 | 35.04406 | -106.73534 | 9931 ft | 217 kts | 269° |
| 2026-04-23 01:37 | 35.04401 | -106.75363 | 10645 ft | 220 kts | 269° |
| 2026-04-23 01:37 | 35.04269 | -106.77248 | 11356 ft | 221 kts | 252° |
| 2026-04-23 01:37 | 35.03496 | -106.78865 | 11995 ft | 226 kts | 225° |
| 2026-04-23 01:38 | 35.02126 | -106.79816 | 12658 ft | 233 kts | 195° |
| 2026-04-23 01:38 | 35.00515 | -106.79773 | 13316 ft | 243 kts | 165° |
| 2026-04-23 01:38 | 34.99084 | -106.78635 | 13928 ft | 255 kts | 133° |
| 2026-04-23 01:38 | 34.98353 | -106.76634 | 14493 ft | 270 kts | 103° |
| 2026-04-23 01:39 | 34.98054 | -106.74274 | 14695 ft | 294 kts | 100° |
| 2026-04-23 01:39 | 34.97783 | -106.71692 | 14887 ft | 318 kts | 99° |
| 2026-04-23 01:39 | 34.97508 | -106.68921 | 15062 ft | 341 kts | 99° |
| 2026-04-23 01:39 | 34.97213 | -106.65944 | 15240 ft | 362 kts | 99° |
| 2026-04-23 01:40 | 34.96898 | -106.62859 | 15722 ft | 371 kts | 99° |
| 2026-04-23 01:40 | 34.96569 | -106.59722 | 16329 ft | 375 kts | 100° |
| 2026-04-23 01:40 | 34.96225 | -106.56560 | 16955 ft | 379 kts | 100° |
| 2026-04-23 01:40 | 34.95873 | -106.53368 | 17598 ft | 382 kts | 100° |
| 2026-04-23 01:41 | 34.95516 | -106.50144 | 18236 ft | 386 kts | 100° |
| 2026-04-23 01:41 | 34.95155 | -106.46883 | 18767 ft | 390 kts | 100° |
| 2026-04-23 01:41 | 34.94789 | -106.43586 | 19284 ft | 395 kts | 100° |
| 2026-04-23 01:41 | 34.94419 | -106.40249 | 19800 ft | 400 kts | 100° |
| 2026-04-23 01:42 | 34.94044 | -106.36862 | 20266 ft | 406 kts | 100° |
| 2026-04-23 01:42 | 34.93664 | -106.33438 | 20747 ft | 411 kts | 100° |
| 2026-04-23 01:42 | 34.93275 | -106.29958 | 21217 ft | 417 kts | 100° |
| 2026-04-23 01:42 | 34.92876 | -106.26398 | 21733 ft | 421 kts | 100° |
| 2026-04-23 01:43 | 34.92484 | -106.22891 | 22241 ft | 425 kts | 100° |
| 2026-04-23 01:43 | 34.92082 | -106.19302 | 22750 ft | 430 kts | 100° |
| 2026-04-23 01:43 | 34.91672 | -106.15675 | 23263 ft | 434 kts | 100° |
| 2026-04-23 01:43 | 34.91257 | -106.12019 | 23720 ft | 438 kts | 100° |
| 2026-04-23 01:44 | 34.90837 | -106.08332 | 24177 ft | 441 kts | 100° |
| 2026-04-23 01:44 | 34.90415 | -106.04620 | 24601 ft | 445 kts | 100° |
| 2026-04-23 01:44 | 34.89987 | -106.00869 | 25031 ft | 448 kts | 100° |
| 2026-04-23 01:44 | 34.89559 | -105.97105 | 25473 ft | 451 kts | 100° |
| 2026-04-23 01:45 | 34.89126 | -105.93313 | 25917 ft | 453 kts | 100° |
| 2026-04-23 01:45 | 34.88687 | -105.89498 | 26350 ft | 456 kts | 100° |
| 2026-04-23 01:45 | 34.88245 | -105.85662 | 26774 ft | 459 kts | 101° |
| 2026-04-23 01:45 | 34.87800 | -105.81806 | 27191 ft | 462 kts | 101° |
| 2026-04-23 01:46 | 34.87350 | -105.77921 | 27608 ft | 465 kts | 101° |
| 2026-04-23 01:46 | 34.86894 | -105.74008 | 28017 ft | 468 kts | 101° |
| 2026-04-23 01:46 | 34.86435 | -105.70081 | 28421 ft | 471 kts | 101° |
| 2026-04-23 01:46 | 34.85974 | -105.66125 | 28820 ft | 474 kts | 101° |
| 2026-04-23 01:47 | 34.85506 | -105.62141 | 29198 ft | 476 kts | 101° |
| 2026-04-23 01:47 | 34.85034 | -105.58150 | 29662 ft | 477 kts | 101° |
| 2026-04-23 01:47 | 34.84559 | -105.54143 | 30047 ft | 479 kts | 101° |
| 2026-04-23 01:47 | 34.84083 | -105.50120 | 30397 ft | 482 kts | 101° |
| 2026-04-23 01:48 | 34.83604 | -105.46071 | 30732 ft | 484 kts | 101° |
| 2026-04-23 01:48 | 34.83122 | -105.42002 | 31072 ft | 487 kts | 101° |
| 2026-04-23 01:48 | 34.82638 | -105.37916 | 31409 ft | 489 kts | 101° |
| 2026-04-23 01:48 | 34.82150 | -105.33808 | 31713 ft | 492 kts | 101° |
| 2026-04-23 01:49 | 34.81655 | -105.29682 | 32037 ft | 494 kts | 101° |
| 2026-04-23 01:49 | 34.81153 | -105.25543 | 32341 ft | 496 kts | 101° |
| 2026-04-23 01:49 | 34.80647 | -105.21385 | 32733 ft | 496 kts | 100° |
| 2026-04-23 01:49 | 34.80142 | -105.17235 | 33172 ft | 496 kts | 100° |
| 2026-04-23 01:50 | 34.79636 | -105.13084 | 33606 ft | 495 kts | 100° |
| 2026-04-23 01:50 | 34.79130 | -105.08933 | 33984 ft | 496 kts | 100° |
| 2026-04-23 01:50 | 34.78625 | -105.04788 | 34331 ft | 495 kts | 100° |
| 2026-04-23 01:50 | 34.78119 | -105.00643 | 34633 ft | 496 kts | 100° |
| 2026-04-23 01:51 | 34.77612 | -104.96501 | 34747 ft | 492 kts | 100° |
| 2026-04-23 01:51 | 34.77113 | -104.92440 | 34760 ft | 480 kts | 100° |
| 2026-04-23 01:51 | 34.76128 | -104.84495 | 34787 ft | 472 kts | 100° |
| 2026-04-23 01:52 | 34.75151 | -104.76623 | 34804 ft | 471 kts | 100° |
| 2026-04-23 01:52 | 34.74170 | -104.68752 | 34816 ft | 470 kts | 100° |
| 2026-04-23 01:53 | 34.73181 | -104.60892 | 34800 ft | 471 kts | 100° |
| 2026-04-23 01:53 | 34.72181 | -104.53026 | 34781 ft | 470 kts | 101° |
| 2026-04-23 01:54 | 34.71177 | -104.45175 | 34740 ft | 470 kts | 101° |
| 2026-04-23 01:54 | 34.70170 | -104.37322 | 34702 ft | 470 kts | 101° |
| 2026-04-23 01:55 | 34.69163 | -104.29493 | 34665 ft | 470 kts | 101° |
| 2026-04-23 01:55 | 34.68158 | -104.21636 | 34666 ft | 470 kts | 101° |
| 2026-04-23 01:56 | 34.67143 | -104.13796 | 34646 ft | 469 kts | 100° |
| 2026-04-23 01:56 | 34.66124 | -104.05960 | 34646 ft | 470 kts | 100° |
| 2026-04-23 01:57 | 34.65092 | -103.98125 | 34648 ft | 470 kts | 101° |
| 2026-04-23 01:57 | 34.64059 | -103.90325 | 34656 ft | 471 kts | 100° |
| 2026-04-23 01:58 | 34.63019 | -103.82477 | 34662 ft | 471 kts | 100° |
| 2026-04-23 01:58 | 34.61972 | -103.74633 | 34673 ft | 470 kts | 101° |
| 2026-04-23 01:59 | 34.60925 | -103.66804 | 34674 ft | 470 kts | 100° |
| 2026-04-23 01:59 | 34.59872 | -103.58977 | 34695 ft | 470 kts | 101° |
| 2026-04-23 02:00 | 34.58813 | -103.51158 | 34697 ft | 469 kts | 101° |
| 2026-04-23 02:00 | 34.57744 | -103.43281 | 33943 ft | 482 kts | 101° |
| 2026-04-23 02:01 | 34.57197 | -103.39272 | 33307 ft | 481 kts | 101° |
| 2026-04-23 02:01 | 34.56651 | -103.35284 | 32757 ft | 478 kts | 101° |
| 2026-04-23 02:01 | 34.56109 | -103.31312 | 32231 ft | 476 kts | 101° |
| 2026-04-23 02:01 | 34.55567 | -103.27350 | 31676 ft | 475 kts | 101° |
| 2026-04-23 02:02 | 34.55024 | -103.23404 | 31133 ft | 473 kts | 101° |
| 2026-04-23 02:02 | 34.54482 | -103.19486 | 30610 ft | 471 kts | 101° |
| 2026-04-23 02:02 | 34.53940 | -103.15568 | 30094 ft | 469 kts | 101° |
| 2026-04-23 02:02 | 34.53405 | -103.11699 | 29664 ft | 464 kts | 100° |
| 2026-04-23 02:03 | 34.52871 | -103.07848 | 29152 ft | 460 kts | 100° |
| 2026-04-23 02:03 | 34.52339 | -103.04043 | 28665 ft | 456 kts | 101° |
| 2026-04-23 02:03 | 34.51809 | -103.00273 | 28186 ft | 452 kts | 101° |
| 2026-04-23 02:03 | 34.51281 | -102.96537 | 27699 ft | 448 kts | 101° |
| 2026-04-23 02:04 | 34.50756 | -102.92826 | 27218 ft | 445 kts | 101° |
| 2026-04-23 02:04 | 34.50238 | -102.89135 | 26734 ft | 443 kts | 101° |
| 2026-04-23 02:04 | 34.49688 | -102.85477 | 26290 ft | 439 kts | 104° |
| 2026-04-23 02:04 | 34.48745 | -102.81986 | 25835 ft | 434 kts | 115° |
| 2026-04-23 02:05 | 34.47481 | -102.78666 | 25336 ft | 433 kts | 117° |
| 2026-04-23 02:05 | 34.46209 | -102.75367 | 24920 ft | 430 kts | 117° |
| 2026-04-23 02:05 | 34.44940 | -102.72079 | 24472 ft | 429 kts | 116° |
| 2026-04-23 02:05 | 34.43689 | -102.68829 | 24116 ft | 423 kts | 116° |
| 2026-04-23 02:06 | 34.42453 | -102.65616 | 23423 ft | 419 kts | 116° |
| 2026-04-23 02:06 | 34.41228 | -102.62436 | 22746 ft | 414 kts | 116° |
| 2026-04-23 02:06 | 34.40028 | -102.59333 | 22276 ft | 412 kts | 116° |
| 2026-04-23 02:06 | 34.38811 | -102.56194 | 21777 ft | 410 kts | 116° |
| 2026-04-23 02:07 | 34.37608 | -102.53083 | 21346 ft | 407 kts | 116° |
| 2026-04-23 02:07 | 34.36412 | -102.50001 | 20945 ft | 402 kts | 116° |
| 2026-04-23 02:07 | 34.35221 | -102.46935 | 20444 ft | 400 kts | 116° |
| 2026-04-23 02:07 | 34.34039 | -102.43891 | 19892 ft | 400 kts | 116° |
| 2026-04-23 02:08 | 34.32864 | -102.40865 | 19458 ft | 397 kts | 116° |
| 2026-04-23 02:08 | 34.31695 | -102.37862 | 18983 ft | 389 kts | 116° |
| 2026-04-23 02:08 | 34.30561 | -102.34944 | 18510 ft | 378 kts | 116° |
| 2026-04-23 02:08 | 34.29441 | -102.32068 | 18066 ft | 377 kts | 116° |
| 2026-04-23 02:09 | 34.28324 | -102.29206 | 17591 ft | 375 kts | 116° |
| 2026-04-23 02:09 | 34.27216 | -102.26371 | 17162 ft | 372 kts | 116° |
| 2026-04-23 02:09 | 34.26116 | -102.23556 | 16737 ft | 369 kts | 116° |
| 2026-04-23 02:09 | 34.25026 | -102.20764 | 16322 ft | 366 kts | 117° |
| 2026-04-23 02:10 | 34.23945 | -102.17995 | 15905 ft | 363 kts | 117° |
| 2026-04-23 02:10 | 34.22871 | -102.15252 | 15502 ft | 360 kts | 117° |
| 2026-04-23 02:10 | 34.21804 | -102.12531 | 15121 ft | 357 kts | 118° |
| 2026-04-23 02:10 | 34.20744 | -102.09833 | 14724 ft | 354 kts | 118° |
| 2026-04-23 02:11 | 34.19700 | -102.07173 | 14482 ft | 343 kts | 118° |
| 2026-04-23 02:11 | 34.18697 | -102.04613 | 14098 ft | 333 kts | 118° |
| 2026-04-23 02:11 | 34.17708 | -102.02096 | 13497 ft | 332 kts | 119° |
| 2026-04-23 02:11 | 34.16716 | -101.99582 | 12849 ft | 331 kts | 119° |
| 2026-04-23 02:12 | 34.15731 | -101.97082 | 12268 ft | 328 kts | 120° |
| 2026-04-23 02:12 | 34.14756 | -101.94614 | 11697 ft | 324 kts | 120° |
| 2026-04-23 02:12 | 34.13796 | -101.92178 | 11183 ft | 318 kts | 120° |
| 2026-04-23 02:12 | 34.12845 | -101.89766 | 10772 ft | 317 kts | 120° |
| 2026-04-23 02:13 | 34.11899 | -101.87372 | 10433 ft | 315 kts | 120° |
| 2026-04-23 02:13 | 34.10878 | -101.85058 | 10090 ft | 308 kts | 132° |
| 2026-04-23 02:13 | 34.09371 | -101.83342 | 9772 ft | 293 kts | 154° |
| 2026-04-23 02:13 | 34.07531 | -101.82450 | 9387 ft | 280 kts | 174° |
| 2026-04-23 02:14 | 34.05629 | -101.82402 | 9011 ft | 270 kts | 193° |
| 2026-04-23 02:14 | 34.03840 | -101.83007 | 8620 ft | 266 kts | 199° |
| 2026-04-23 02:14 | 34.01996 | -101.83238 | 8219 ft | 269 kts | 182° |
| 2026-04-23 02:14 | 34.00138 | -101.83181 | 7855 ft | 266 kts | 182° |
| 2026-04-23 02:15 | 33.96469 | -101.83111 | 7502 ft | 264 kts | 183° |
| 2026-04-23 02:15 | 33.94628 | -101.83090 | 7375 ft | 264 kts | 183° |
| 2026-04-23 02:15 | 33.92820 | -101.83073 | 7240 ft | 254 kts | 183° |
| 2026-04-23 02:16 | 33.91111 | -101.83055 | 7107 ft | 236 kts | 184° |
| 2026-04-23 02:16 | 33.89541 | -101.83038 | 6971 ft | 216 kts | 183° |
| 2026-04-23 02:16 | 33.88100 | -101.83024 | 6853 ft | 199 kts | 183° |
| 2026-04-23 02:16 | 33.86783 | -101.83013 | 6751 ft | 180 kts | 184° |
| 2026-04-23 02:17 | 33.85601 | -101.83003 | 6627 ft | 165 kts | 184° |
| 2026-04-23 02:17 | 33.84508 | -101.82994 | 6501 ft | 149 kts | 185° |
| 2026-04-23 02:17 | 33.83509 | -101.82987 | 6323 ft | 140 kts | 184° |
| 2026-04-23 02:17 | 33.82554 | -101.82983 | 6069 ft | 132 kts | 185° |
| 2026-04-23 02:18 | 33.81648 | -101.82978 | 5646 ft | 130 kts | 182° |
| 2026-04-23 02:18 | 33.80749 | -101.82975 | 5208 ft | 129 kts | 183° |
| 2026-04-23 02:18 | 33.79854 | -101.82971 | 4814 ft | 129 kts | 178° |
| 2026-04-23 02:18 | 33.78972 | -101.82968 | 4502 ft | 124 kts | 177° |
| 2026-04-23 02:19 | 33.78086 | -101.82963 | 4477 ft | 130 kts | 176° |
| 2026-04-23 02:19 | 33.77189 | -101.82959 | 4482 ft | 129 kts | 179° |
| 2026-04-23 02:19 | 33.76281 | -101.82955 | 4480 ft | 131 kts | 178° |
| 2026-04-23 02:19 | 33.75377 | -101.82951 | 4443 ft | 130 kts | 177° |
| 2026-04-23 02:20 | 33.74458 | -101.82945 | 4456 ft | 132 kts | 176° |
| 2026-04-23 02:20 | 33.73553 | -101.82940 | 4314 ft | 130 kts | 178° |
| 2026-04-23 02:20 | 33.72639 | -101.82934 | 4173 ft | 130 kts | 178° |
| 2026-04-23 02:20 | 33.71745 | -101.82928 | 4029 ft | 130 kts | 179° |
| 2026-04-23 02:21 | 33.70799 | -101.82924 | 3879 ft | 141 kts | 180° |
| 2026-04-23 02:21 | 33.69809 | -101.82924 | 3655 ft | 142 kts | 176° |
| 2026-04-23 02:21 | 33.69160 | -101.82914 | 3529 ft | 140 kts | 177° |
| 2026-04-23 02:21 | 33.68209 | -101.82902 | 3351 ft | 135 kts | 180° |
| 2026-04-23 02:22 | 33.67357 | -101.82897 | 3291 ft | 106 kts | 179° |
| 2026-04-23 02:22 | 33.66840 | -101.82892 | 3296 ft | 52 kts | 179° |
| 2026-04-23 02:22 | 33.66519 | -101.82888 | 3294 ft | 49 kts | 179° |
| 2026-04-23 02:22 | 33.66167 | -101.82883 | 3290 ft | 32 kts | 179° |
| 2026-04-23 02:23 | 33.66036 | -101.82768 | 3292 ft | 11 kts | 115° |
| 2026-04-23 02:23 | 33.66032 | -101.82756 | 3292 ft | 0 kts | 109° |
| 2026-04-23 02:23 | 33.66029 | -101.82732 | 3292 ft | 8 kts | 94° |
| 2026-04-23 02:24 | 33.66029 | -101.82655 | 3293 ft | 10 kts | 89° |
| 2026-04-23 02:24 | 33.66030 | -101.82573 | 3293 ft | 10 kts | 89° |
| 2026-04-23 02:24 | 33.66032 | -101.82485 | 3293 ft | 11 kts | 89° |
| 2026-04-23 02:24 | 33.66012 | -101.82393 | 3293 ft | 12 kts | 142° |
| 2026-04-23 02:25 | 33.65930 | -101.82377 | 3293 ft | 12 kts | 170° |
| 2026-04-23 02:25 | 33.65850 | -101.82333 | 3293 ft | 13 kts | 146° |
| 2026-04-23 02:25 | 33.65798 | -101.82256 | 3293 ft | 13 kts | 83° |
| 2026-04-23 02:25 | 33.65774 | -101.82206 | 3293 ft | 6 kts | 179° |
| 2026-04-23 02:26 | 33.65767 | -101.82206 | 3293 ft | 0 kts | 179° |
| 2026-04-23 02:26 | 33.65764 | -101.82206 | 3293 ft | 1 kts | 184° |
| 2026-04-23 02:26 | 33.65757 | -101.82207 | 3293 ft | 2 kts | 184° |
| 2026-04-23 02:26 | 33.65746 | -101.82208 | 3293 ft | 1 kts | 184° |
| 2026-04-23 02:27 | 33.65745 | -101.82208 | 3293 ft | 0 kts | 183° |